createdAt,value
2016-07-12T00:00:14.526Z,0
2016-07-12T00:01:14.556Z,0
2016-07-12T00:02:29.489Z,0
2016-07-12T00:03:14.608Z,0
2016-07-12T00:04:14.644Z,0
2016-07-12T00:05:14.666Z,0
2016-07-12T00:06:14.685Z,0
2016-07-12T00:07:29.629Z,0
2016-07-12T00:08:14.748Z,0
2016-07-12T00:10:14.805Z,0
2016-07-12T00:13:14.889Z,0
2016-07-12T00:14:14.925Z,0
2016-07-12T00:15:14.944Z,0
2016-07-12T00:16:14.967Z,0
2016-07-12T00:17:14.993Z,0
2016-07-12T00:18:29.936Z,0
2016-07-12T00:19:15.056Z,0
2016-07-12T00:20:15.088Z,0
2016-07-12T00:21:15.114Z,0
2016-07-12T00:22:30.055Z,0
2016-07-12T00:23:15.178Z,0
2016-07-12T00:24:15.197Z,0
2016-07-12T00:26:15.245Z,0
2016-07-12T00:27:15.277Z,0
2016-07-12T00:28:15.310Z,0
2016-07-12T00:29:15.335Z,0
2016-07-12T00:30:30.275Z,0
2016-07-12T00:31:15.393Z,0
2016-07-12T00:32:15.420Z,0
2016-07-12T00:33:15.450Z,0
2016-07-12T00:35:15.511Z,0
2016-07-12T00:36:15.532Z,0
2016-07-12T00:37:15.556Z,0
2016-07-12T00:38:15.584Z,0
2016-07-12T00:39:15.614Z,0
2016-07-12T00:40:15.641Z,0
2016-07-12T00:41:15.678Z,0
2016-07-12T00:42:30.615Z,0
2016-07-12T00:43:15.731Z,0
2016-07-12T00:44:15.751Z,0
2016-07-12T00:46:15.803Z,0
2016-07-12T00:47:15.852Z,0
2016-07-12T00:48:15.864Z,0
2016-07-12T00:49:15.894Z,0
2016-07-12T00:50:30.828Z,0
2016-07-12T00:51:15.996Z,0
2016-07-12T00:52:15.976Z,0
2016-07-12T00:53:16.005Z,0
2016-07-12T00:54:30.947Z,0
2016-07-12T00:55:30.978Z,0
2016-07-12T00:56:16.086Z,0
2016-07-12T00:57:16.112Z,0
2016-07-12T00:58:16.145Z,0
2016-07-12T00:59:16.165Z,0
2016-07-12T01:00:31.111Z,0
2016-07-12T01:01:31.142Z,0
2016-07-12T01:02:16.252Z,0
2016-07-12T01:03:16.283Z,0
2016-07-12T01:04:16.312Z,0
2016-07-12T01:05:16.331Z,0
2016-07-12T01:06:16.361Z,0
2016-07-12T01:07:16.393Z,0
2016-07-12T01:08:16.423Z,0
2016-07-12T01:09:16.450Z,0
2016-07-12T01:10:31.388Z,0
2016-07-12T01:11:16.502Z,0
2016-07-12T01:12:16.532Z,0
2016-07-12T01:13:16.558Z,0
2016-07-12T01:14:16.588Z,0
2016-07-12T01:15:16.614Z,0
2016-07-12T01:16:16.639Z,0
2016-07-12T01:18:16.700Z,0
2016-07-12T01:19:16.728Z,0
2016-07-12T01:20:16.747Z,0
2016-07-12T01:21:16.777Z,0
2016-07-12T01:22:16.805Z,0
2016-07-12T01:23:16.834Z,0
2016-07-12T01:24:16.865Z,0
2016-07-12T01:25:16.898Z,0
2016-07-12T01:26:31.835Z,0
2016-07-12T01:27:16.952Z,0
2016-07-12T01:28:16.963Z,0
2016-07-12T01:29:16.996Z,0
2016-07-12T01:31:31.979Z,0
2016-07-12T01:32:32.001Z,0
2016-07-12T01:33:32.027Z,0
2016-07-12T01:34:17.840Z,0
2016-07-12T01:35:17.166Z,0
2016-07-12T01:36:17.197Z,0
2016-07-12T01:37:17.224Z,0
2016-07-12T01:38:17.253Z,0
2016-07-12T01:39:17.994Z,0
2016-07-12T01:40:17.308Z,0
2016-07-12T01:41:17.332Z,0
2016-07-12T01:42:32.281Z,0
2016-07-12T01:43:17.393Z,0
2016-07-12T01:44:17.414Z,0
2016-07-12T01:45:17.457Z,0
2016-07-12T01:46:18.166Z,0
2016-07-12T01:48:32.443Z,0
2016-07-12T01:49:32.466Z,0
2016-07-12T01:50:17.588Z,0
2016-07-12T01:51:17.607Z,0
2016-07-12T01:52:17.635Z,0
2016-07-12T01:53:17.675Z,0
2016-07-12T01:54:17.697Z,0
2016-07-12T01:55:17.723Z,0
2016-07-12T01:56:17.747Z,0
2016-07-12T01:57:32.692Z,0
2016-07-12T01:58:17.806Z,0
2016-07-12T01:59:17.829Z,0
2016-07-12T02:00:17.858Z,0
2016-07-12T02:01:17.887Z,0
2016-07-12T02:03:17.941Z,0
2016-07-12T02:04:32.886Z,0
2016-07-12T02:05:18.004Z,0
2016-07-12T02:06:18.019Z,0
2016-07-12T02:07:18.059Z,0
2016-07-12T02:09:33.020Z,0
2016-07-12T02:10:33.044Z,0
2016-07-12T02:11:18.168Z,0
2016-07-12T02:12:18.200Z,0
2016-07-12T02:13:18.221Z,0
2016-07-12T02:14:18.241Z,0
2016-07-12T02:15:18.284Z,0
2016-07-12T02:16:33.913Z,0
2016-07-12T02:17:33.246Z,0
2016-07-12T02:18:18.351Z,0
2016-07-12T02:19:18.387Z,0
2016-07-12T02:20:18.417Z,0
2016-07-12T02:21:18.446Z,0
2016-07-12T02:22:18.467Z,0
2016-07-12T02:23:33.405Z,4
2016-07-12T02:24:33.433Z,4
2016-07-12T02:25:18.549Z,4
2016-07-12T02:26:18.577Z,4
2016-07-12T02:27:18.610Z,0
2016-07-12T02:28:18.631Z,0
2016-07-12T02:29:48.485Z,4
2016-07-12T02:30:18.683Z,4
2016-07-12T02:31:33.633Z,4
2016-07-12T02:32:18.741Z,4
2016-07-12T02:33:18.772Z,4
2016-07-12T02:34:18.796Z,4
2016-07-12T02:35:18.829Z,8
2016-07-12T02:36:33.779Z,4
2016-07-12T02:37:18.879Z,8
2016-07-12T02:38:18.905Z,8
2016-07-12T02:39:18.934Z,8
2016-07-12T02:40:18.980Z,12
2016-07-12T02:41:18.985Z,12
2016-07-12T02:42:19.015Z,12
2016-07-12T02:43:33.951Z,12
2016-07-12T02:44:19.068Z,12
2016-07-12T02:45:48.924Z,16
2016-07-12T02:46:19.125Z,20
2016-07-12T02:47:19.148Z,20
2016-07-12T02:48:19.178Z,28
2016-07-12T02:49:19.209Z,28
2016-07-12T02:50:34.154Z,36
2016-07-12T02:51:34.176Z,40
2016-07-12T02:52:34.209Z,48
2016-07-12T02:53:19.325Z,48
2016-07-12T02:54:19.351Z,52
2016-07-12T02:55:19.366Z,60
2016-07-12T02:56:19.401Z,64
2016-07-12T02:57:19.487Z,68
2016-07-12T02:58:19.455Z,72
2016-07-12T02:59:19.492Z,80
2016-07-12T03:00:19.513Z,88
2016-07-12T03:01:34.453Z,96
2016-07-12T03:02:19.568Z,104
2016-07-12T03:03:34.508Z,112
2016-07-12T03:04:19.632Z,116
2016-07-12T03:05:19.647Z,120
2016-07-12T03:07:19.710Z,136
2016-07-12T03:08:19.721Z,140
2016-07-12T03:09:34.674Z,148
2016-07-12T03:10:19.788Z,156
2016-07-12T03:11:19.815Z,172
2016-07-12T03:12:34.754Z,188
2016-07-12T03:13:34.783Z,204
2016-07-12T03:14:19.895Z,212
2016-07-12T03:15:19.922Z,220
2016-07-12T03:16:20.653Z,228
2016-07-12T03:17:34.892Z,232
2016-07-12T03:18:20.001Z,228
2016-07-12T03:19:20.033Z,228
2016-07-12T03:20:20.056Z,232
2016-07-12T03:22:20.811Z,244
2016-07-12T03:23:20.144Z,244
2016-07-12T03:25:35.127Z,256
2016-07-12T03:26:20.932Z,268
2016-07-12T03:27:35.164Z,288
2016-07-12T03:28:20.286Z,300
2016-07-12T03:29:20.314Z,308
2016-07-12T03:30:20.332Z,312
2016-07-12T03:31:20.369Z,320
2016-07-12T03:32:35.307Z,328
2016-07-12T03:33:20.417Z,324
2016-07-12T03:34:20.440Z,328
2016-07-12T03:35:21.175Z,332
2016-07-12T03:36:20.497Z,340
2016-07-12T03:39:35.494Z,368
2016-07-12T03:40:20.617Z,364
2016-07-12T03:41:20.641Z,356
2016-07-12T03:42:20.670Z,360
2016-07-12T03:43:20.709Z,364
2016-07-12T03:44:35.631Z,392
2016-07-12T03:45:20.755Z,416
2016-07-12T03:46:20.773Z,436
2016-07-12T03:48:20.843Z,472
2016-07-12T03:49:20.863Z,500
2016-07-12T03:50:20.901Z,528
2016-07-12T03:51:20.919Z,552
2016-07-12T03:52:20.947Z,588
2016-07-12T03:53:20.973Z,620
2016-07-12T03:55:21.025Z,672
2016-07-12T03:56:21.046Z,688
2016-07-12T03:57:36.006Z,680
2016-07-12T03:58:21.103Z,664
2016-07-12T03:59:21.134Z,656
2016-07-12T04:00:36.070Z,664
2016-07-12T04:01:21.189Z,668
2016-07-12T04:02:21.217Z,688
2016-07-12T04:03:21.295Z,724
2016-07-12T04:04:36.191Z,760
2016-07-12T04:05:21.293Z,780
2016-07-12T04:06:21.321Z,808
2016-07-12T04:07:21.353Z,828
2016-07-12T04:08:21.384Z,824
2016-07-12T04:10:21.459Z,808
2016-07-12T04:11:21.460Z,840
2016-07-12T04:12:21.496Z,880
2016-07-12T04:13:21.511Z,892
2016-07-12T04:14:21.551Z,904
2016-07-12T04:15:21.572Z,916
2016-07-12T04:16:21.613Z,928
2016-07-12T04:17:22.340Z,984
2016-07-12T04:18:21.659Z,1044
2016-07-12T04:19:36.604Z,1076
2016-07-12T04:20:36.627Z,1088
2016-07-12T04:22:21.775Z,1164
2016-07-12T04:24:21.822Z,1140
2016-07-12T04:25:21.856Z,1120
2016-07-12T04:26:21.891Z,1104
2016-07-12T04:27:36.819Z,1048
2016-07-12T04:28:21.928Z,1012
2016-07-12T04:29:21.957Z,1008
2016-07-12T04:30:21.987Z,1064
2016-07-12T04:31:22.028Z,1164
2016-07-12T04:32:22.044Z,1288
2016-07-12T04:33:22.078Z,1392
2016-07-12T04:35:22.118Z,1576
2016-07-12T04:36:51.976Z,1688
2016-07-12T04:37:22.174Z,1712
2016-07-12T04:38:37.120Z,1752
2016-07-12T04:39:22.234Z,1768
2016-07-12T04:40:37.182Z,1800
2016-07-12T04:41:37.201Z,1792
2016-07-12T04:42:37.230Z,1768
2016-07-12T04:43:22.349Z,1740
2016-07-12T04:44:22.370Z,1684
2016-07-12T04:45:22.399Z,1600
2016-07-12T04:46:22.428Z,1516
2016-07-12T04:47:22.449Z,1468
2016-07-12T04:48:22.487Z,1436
2016-07-12T04:49:22.511Z,1408
2016-07-12T04:50:23.283Z,1400
2016-07-12T04:51:22.573Z,1416
2016-07-12T04:52:37.517Z,1464
2016-07-12T04:53:22.619Z,1468
2016-07-12T04:54:37.567Z,1492
2016-07-12T04:55:22.686Z,1528
2016-07-12T04:56:22.701Z,1624
2016-07-12T04:57:22.737Z,1740
2016-07-12T04:58:22.760Z,1848
2016-07-12T04:59:37.707Z,1932
2016-07-12T05:00:22.811Z,1968
2016-07-12T05:01:22.850Z,2000
2016-07-12T05:02:22.879Z,2060
2016-07-12T05:03:22.954Z,2152
2016-07-12T05:04:22.975Z,2232
2016-07-12T05:06:22.982Z,2372
2016-07-12T05:07:37.924Z,2444
2016-07-12T05:08:23.037Z,2500
2016-07-12T05:09:23.063Z,2628
2016-07-12T05:10:23.089Z,2804
2016-07-12T05:11:23.118Z,2972
2016-07-12T05:12:23.145Z,3112
2016-07-12T05:13:23.187Z,3124
2016-07-12T05:14:23.208Z,2968
2016-07-12T05:15:23.244Z,2808
2016-07-12T05:16:23.263Z,2736
2016-07-12T05:17:23.283Z,2764
2016-07-12T05:18:23.324Z,2708
2016-07-12T05:19:23.359Z,2660
2016-07-12T05:20:23.374Z,2668
2016-07-12T05:21:24.105Z,2600
2016-07-12T05:22:23.428Z,2324
2016-07-12T05:23:23.454Z,2196
2016-07-12T05:24:23.481Z,2108
2016-07-12T05:25:23.512Z,2032
2016-07-12T05:27:23.567Z,1992
2016-07-12T05:28:23.600Z,2012
2016-07-12T05:29:23.626Z,2080
2016-07-12T05:30:23.655Z,2204
2016-07-12T05:31:38.591Z,2412
2016-07-12T05:32:23.721Z,2492
2016-07-12T05:34:23.777Z,2832
2016-07-12T05:35:23.793Z,3072
2016-07-12T05:36:23.825Z,3448
2016-07-12T05:37:23.858Z,3324
2016-07-12T05:38:23.877Z,3164
2016-07-12T05:39:38.819Z,2996
2016-07-12T05:40:23.930Z,2804
2016-07-12T05:41:38.878Z,2708
2016-07-12T05:42:38.898Z,2632
2016-07-12T05:43:38.926Z,2812
2016-07-12T05:44:24.043Z,3064
2016-07-12T05:45:24.042Z,3452
2016-07-12T05:46:24.073Z,3592
2016-07-12T05:47:24.110Z,3888
2016-07-12T05:48:24.122Z,4208
2016-07-12T05:49:24.159Z,4400
2016-07-12T05:50:24.186Z,4556
2016-07-12T05:51:24.210Z,4516
2016-07-12T05:52:24.242Z,4484
2016-07-12T05:53:39.192Z,4828
2016-07-12T05:54:24.296Z,5008
2016-07-12T05:55:39.238Z,4652
2016-07-12T05:56:24.351Z,4400
2016-07-12T05:57:24.374Z,4260
2016-07-12T05:58:24.397Z,4372
2016-07-12T05:59:24.428Z,4408
2016-07-12T06:00:24.444Z,4368
2016-07-12T06:01:24.479Z,4396
2016-07-12T06:02:24.517Z,4740
2016-07-12T06:03:24.531Z,5056
2016-07-12T06:04:39.489Z,5072
2016-07-12T06:05:39.519Z,4700
2016-07-12T06:07:39.572Z,3016
2016-07-12T06:08:39.597Z,2488
2016-07-12T06:09:24.706Z,2288
2016-07-12T06:10:24.734Z,2320
2016-07-12T06:11:39.690Z,2648
2016-07-12T06:12:24.788Z,2864
2016-07-12T06:14:24.847Z,3284
2016-07-12T06:15:24.874Z,3568
2016-07-12T06:16:24.908Z,3740
2016-07-12T06:17:25.628Z,3700
2016-07-12T06:18:24.958Z,3636
2016-07-12T06:19:24.989Z,3560
2016-07-12T06:21:25.035Z,3564
2016-07-12T06:22:39.997Z,3896
2016-07-12T06:23:40.022Z,3952
2016-07-12T06:24:25.121Z,3728
2016-07-12T06:25:25.157Z,3320
2016-07-12T06:26:25.179Z,2940
2016-07-12T06:27:40.139Z,2684
2016-07-12T06:28:25.240Z,2576
2016-07-12T06:29:25.266Z,2520
2016-07-12T06:30:25.294Z,2408
2016-07-12T06:31:25.338Z,2272
2016-07-12T06:32:25.356Z,2116
2016-07-12T06:33:25.382Z,2016
2016-07-12T06:34:25.410Z,1900
2016-07-12T06:35:25.442Z,1864
2016-07-12T06:36:25.463Z,1852
2016-07-12T06:37:25.487Z,1904
2016-07-12T06:39:40.477Z,2068
2016-07-12T06:41:25.610Z,2168
2016-07-12T06:42:40.559Z,2312
2016-07-12T06:43:25.664Z,2428
2016-07-12T06:44:25.693Z,2480
2016-07-12T06:45:25.727Z,2376
2016-07-12T06:46:25.747Z,2296
2016-07-12T06:47:25.769Z,2256
2016-07-12T06:48:25.807Z,2272
2016-07-12T06:49:25.830Z,2160
2016-07-12T06:51:25.890Z,2172
2016-07-12T06:52:25.920Z,2344
2016-07-12T06:53:25.946Z,2604
2016-07-12T06:54:25.979Z,2884
2016-07-12T06:55:26.004Z,3008
2016-07-12T06:56:26.027Z,3100
2016-07-12T06:57:26.057Z,3052
2016-07-12T06:58:26.087Z,3348
2016-07-12T06:59:41.033Z,4244
2016-07-12T07:00:26.136Z,4480
2016-07-12T07:01:26.161Z,4328
2016-07-12T07:02:26.198Z,4836
2016-07-12T07:03:26.221Z,5688
2016-07-12T07:04:26.258Z,6592
2016-07-12T07:05:26.285Z,6892
2016-07-12T07:07:26.331Z,6672
2016-07-12T07:08:26.367Z,6856
2016-07-12T07:09:26.390Z,4704
2016-07-12T07:10:26.424Z,4852
2016-07-12T07:11:26.458Z,7396
2016-07-12T07:12:26.481Z,11268
2016-07-12T07:13:26.505Z,6644
2016-07-12T07:14:41.457Z,4164
2016-07-12T07:15:41.487Z,3916
2016-07-12T07:16:26.597Z,4328
2016-07-12T07:17:26.623Z,5692
2016-07-12T07:19:26.676Z,8188
2016-07-12T07:20:26.712Z,7516
2016-07-12T07:21:26.738Z,7412
2016-07-12T07:22:26.765Z,8760
2016-07-12T07:23:26.792Z,9436
2016-07-12T07:24:26.997Z,8340
2016-07-12T07:25:26.855Z,9244
2016-07-12T07:26:26.877Z,11012
2016-07-12T07:27:41.830Z,9692
2016-07-12T07:28:26.936Z,8796
2016-07-12T07:29:26.958Z,8740
2016-07-12T07:30:41.916Z,8680
2016-07-12T07:31:27.023Z,8376
2016-07-12T07:32:27.055Z,7328
2016-07-12T07:33:27.073Z,7156
2016-07-12T07:34:27.120Z,6576
2016-07-12T07:35:27.137Z,7416
2016-07-12T07:37:27.194Z,8696
2016-07-12T07:39:42.183Z,9108
2016-07-12T07:40:27.283Z,8796
2016-07-12T07:41:27.309Z,7612
2016-07-12T07:42:27.341Z,7712
2016-07-12T07:43:27.369Z,8820
2016-07-12T07:44:42.322Z,10176
2016-07-12T07:45:27.426Z,10424
2016-07-12T07:46:42.382Z,12460
2016-07-12T07:47:27.485Z,12900
2016-07-12T07:48:27.510Z,16108
2016-07-12T07:49:27.550Z,12240
2016-07-12T07:50:27.576Z,9724
2016-07-12T07:51:27.601Z,7988
2016-07-12T07:52:27.637Z,6968
2016-07-12T07:53:27.660Z,5948
2016-07-12T07:54:28.389Z,4680
2016-07-12T07:55:27.728Z,4556
2016-07-12T07:56:27.749Z,5076
2016-07-12T07:57:27.781Z,5328
2016-07-12T07:59:43.457Z,5392
2016-07-12T08:00:27.868Z,5364
2016-07-12T08:01:28.601Z,5736
2016-07-12T08:02:42.846Z,6864
2016-07-12T08:03:27.953Z,7028
2016-07-12T08:04:27.982Z,7136
2016-07-12T08:05:28.008Z,7932
2016-07-12T08:07:28.065Z,7456
2016-07-12T08:08:28.100Z,7152
2016-07-12T08:09:28.127Z,7000
2016-07-12T08:11:28.205Z,8944
2016-07-12T08:12:28.209Z,11380
2016-07-12T08:13:28.249Z,9884
2016-07-12T08:14:28.273Z,8380
2016-07-12T08:15:43.230Z,6836
2016-07-12T08:16:28.333Z,6304
2016-07-12T08:17:43.286Z,5344
2016-07-12T08:18:28.394Z,4956
2016-07-12T08:19:28.422Z,4528
2016-07-12T08:20:28.461Z,4164
2016-07-12T08:21:28.481Z,4028
2016-07-12T08:22:28.507Z,4088
2016-07-12T08:23:28.536Z,4024
2016-07-12T08:24:28.563Z,4224
2016-07-12T08:25:28.606Z,4456
2016-07-12T08:26:28.622Z,4648
2016-07-12T08:27:28.660Z,4872
2016-07-12T08:28:28.688Z,5120
2016-07-12T08:29:28.711Z,5216
2016-07-12T08:30:28.743Z,5384
2016-07-12T08:31:43.702Z,6124
2016-07-12T08:32:28.811Z,6452
2016-07-12T08:33:28.842Z,6924
2016-07-12T08:34:28.872Z,7528
2016-07-12T08:35:28.887Z,8264
2016-07-12T08:39:29.017Z,14548
2016-07-12T08:40:29.042Z,13808
2016-07-12T08:41:29.059Z,14476
2016-07-12T08:42:44.025Z,15292
2016-07-12T08:43:29.128Z,14608
2016-07-12T08:44:44.081Z,14488
2016-07-12T08:45:44.111Z,15336
2016-07-12T08:47:29.255Z,15024
2016-07-12T08:48:29.275Z,14984
2016-07-12T08:49:44.230Z,16404
2016-07-12T08:50:30.031Z,22368
2016-07-12T08:51:29.364Z,15476
2016-07-12T08:52:44.312Z,14896
2016-07-12T08:53:29.422Z,15056
2016-07-12T08:54:29.458Z,14684
2016-07-12T08:55:29.486Z,23616
2016-07-12T08:56:29.521Z,15272
2016-07-12T08:57:29.546Z,13644
2016-07-12T08:58:29.573Z,13572
2016-07-12T08:59:29.606Z,13264
2016-07-12T09:01:29.666Z,12396
2016-07-12T09:03:29.726Z,12852
2016-07-12T09:04:29.755Z,15968
2016-07-12T09:05:44.720Z,14312
2016-07-12T09:06:29.873Z,14512
2016-07-12T09:07:29.860Z,14784
2016-07-12T09:08:29.887Z,16520
2016-07-12T09:09:29.912Z,23136
2016-07-12T09:10:29.945Z,23648
2016-07-12T09:11:29.977Z,22880
2016-07-12T09:12:30.003Z,22624
2016-07-12T09:13:30.032Z,14892
2016-07-12T09:14:30.067Z,14764
2016-07-12T09:15:30.099Z,21888
2016-07-12T09:16:30.136Z,15008
2016-07-12T09:18:30.193Z,23712
2016-07-12T09:19:45.152Z,15916
2016-07-12T09:20:30.256Z,14384
2016-07-12T09:21:45.219Z,14416
2016-07-12T09:22:30.316Z,13860
2016-07-12T09:23:45.273Z,13088
2016-07-12T09:24:30.380Z,12976
2016-07-12T09:25:30.409Z,14032
2016-07-12T09:26:30.444Z,19744
2016-07-12T09:27:30.482Z,20416
2016-07-12T09:28:30.504Z,21440
2016-07-12T09:29:45.474Z,20800
2016-07-12T09:30:30.578Z,20480
2016-07-12T09:31:30.603Z,18656
2016-07-12T09:32:30.640Z,20160
2016-07-12T09:33:30.667Z,14368
2016-07-12T09:34:30.696Z,15740
2016-07-12T09:35:30.735Z,20224
2016-07-12T09:36:45.689Z,12712
2016-07-12T09:38:30.831Z,19488
2016-07-12T09:39:30.858Z,18976
2016-07-12T09:40:30.898Z,13552
2016-07-12T09:41:30.920Z,13680
2016-07-12T09:42:30.948Z,13624
2016-07-12T09:43:30.990Z,13104
2016-07-12T09:44:31.015Z,13064
2016-07-12T09:45:31.054Z,13148
2016-07-12T09:46:31.092Z,13268
2016-07-12T09:47:31.125Z,13928
2016-07-12T09:48:31.147Z,17696
2016-07-12T09:49:31.179Z,13692
2016-07-12T09:50:31.220Z,13360
2016-07-12T09:51:31.247Z,13364
2016-07-12T09:52:46.204Z,14840
2016-07-12T09:53:31.315Z,14188
2016-07-12T09:54:31.341Z,18016
2016-07-12T09:55:31.383Z,18208
2016-07-12T09:56:31.406Z,16408
2016-07-12T09:57:31.434Z,19840
2016-07-12T09:58:31.462Z,20992
2016-07-12T09:59:31.503Z,20800
2016-07-12T10:00:31.535Z,21152
2016-07-12T10:01:31.558Z,20928
2016-07-12T10:02:31.590Z,17664
2016-07-12T10:03:31.630Z,19264
2016-07-12T10:04:31.656Z,18432
2016-07-12T10:05:31.694Z,18144
2016-07-12T10:06:31.726Z,15728
2016-07-12T10:08:31.787Z,11944
2016-07-12T10:09:31.818Z,11896
2016-07-12T10:10:31.851Z,16332
2016-07-12T10:11:31.889Z,19584
2016-07-12T10:12:31.908Z,19104
2016-07-12T10:13:32.002Z,18368
2016-07-12T10:14:31.988Z,13536
2016-07-12T10:16:32.045Z,14680
2016-07-12T10:17:32.073Z,17088
2016-07-12T10:18:32.111Z,14780
2016-07-12T10:19:32.140Z,14504
2016-07-12T10:20:32.176Z,9636
2016-07-12T10:21:32.214Z,16532
2016-07-12T10:22:32.233Z,16552
2016-07-12T10:23:32.269Z,16508
2016-07-12T10:24:47.226Z,16360
2016-07-12T10:25:32.340Z,16448
2016-07-12T10:26:32.369Z,16336
2016-07-12T10:27:32.401Z,15720
2016-07-12T10:28:32.450Z,16036
2016-07-12T10:29:32.468Z,15752
2016-07-12T10:31:48.149Z,14600
2016-07-12T10:32:32.558Z,14396
2016-07-12T10:35:24.567Z,13352
2016-07-12T10:35:33.148Z,13264
2016-07-12T10:36:33.178Z,13360
2016-07-12T10:37:33.218Z,13528
2016-07-12T10:38:33.249Z,13544
2016-07-12T10:39:33.279Z,13804
2016-07-12T10:40:33.310Z,13844
2016-07-12T10:41:33.337Z,13696
2016-07-12T10:42:33.375Z,13328
2016-07-12T10:43:33.409Z,11832
2016-07-12T10:46:33.505Z,12488
2016-07-12T10:48:33.570Z,13768
2016-07-12T10:49:33.599Z,14504
2016-07-12T10:50:33.630Z,11576
2016-07-12T10:51:33.666Z,13448
2016-07-12T10:52:33.705Z,14336
2016-07-12T10:53:33.726Z,9360
2016-07-12T10:54:33.767Z,12956
2016-07-12T10:55:33.790Z,14820
2016-07-12T10:56:33.829Z,15704
2016-07-12T10:57:48.785Z,11032
2016-07-12T10:58:48.817Z,14576
2016-07-12T10:59:33.928Z,14832
2016-07-12T11:00:33.956Z,14668
2016-07-12T11:01:48.914Z,13740
2016-07-12T11:02:34.023Z,14204
2016-07-12T11:03:34.049Z,9800
2016-07-12T11:04:34.078Z,8720
2016-07-12T11:06:34.152Z,11836
2016-07-12T11:07:34.234Z,8412
2016-07-12T11:08:34.220Z,8548
2016-07-12T11:09:34.298Z,8892
2016-07-12T11:10:34.269Z,9384
2016-07-12T11:11:34.305Z,8876
2016-07-12T11:12:34.337Z,9088
2016-07-12T11:13:49.297Z,9352
2016-07-12T11:14:49.329Z,8896
2016-07-12T11:15:34.447Z,8492
2016-07-12T11:16:34.466Z,8136
2016-07-12T11:18:34.534Z,7536
2016-07-12T11:19:34.565Z,7816
2016-07-12T11:21:34.623Z,13200
2016-07-12T11:22:34.650Z,9124
2016-07-12T11:23:34.689Z,9544
2016-07-12T11:24:34.716Z,12904
2016-07-12T11:25:34.743Z,12224
2016-07-12T11:26:34.785Z,11268
2016-07-12T11:27:34.813Z,12248
2016-07-12T11:28:34.845Z,9348
2016-07-12T11:29:34.867Z,9000
2016-07-12T11:30:34.904Z,8528
2016-07-12T11:31:49.864Z,8496
2016-07-12T11:32:34.973Z,8448
2016-07-12T11:33:49.924Z,8912
2016-07-12T11:34:35.038Z,9184
2016-07-12T11:35:49.988Z,8736
2016-07-12T11:36:35.099Z,11428
2016-07-12T11:37:35.129Z,11488
2016-07-12T11:38:35.156Z,11456
2016-07-12T11:39:35.190Z,11332
2016-07-12T11:41:35.257Z,12208
2016-07-12T11:42:35.291Z,11660
2016-07-12T11:43:35.324Z,9536
2016-07-12T11:44:35.344Z,9236
2016-07-12T11:45:35.384Z,9908
2016-07-12T11:46:35.413Z,9904
2016-07-12T11:47:35.448Z,11132
2016-07-12T11:48:35.484Z,9452
2016-07-12T11:49:50.434Z,9164
2016-07-12T11:50:35.534Z,9076
2016-07-12T11:51:35.574Z,9140
2016-07-12T11:52:35.606Z,9348
2016-07-12T11:53:36.327Z,10044
2016-07-12T11:54:35.672Z,9864
2016-07-12T11:55:35.703Z,10132
2016-07-12T11:56:35.723Z,10344
2016-07-12T11:57:35.754Z,10728
2016-07-12T11:58:35.788Z,10464
2016-07-12T11:59:35.821Z,10724
2016-07-12T12:00:36.554Z,10764
2016-07-12T12:01:35.892Z,10688
2016-07-12T12:02:35.916Z,10600
2016-07-12T12:03:35.955Z,10472
2016-07-12T12:05:50.938Z,10516
2016-07-12T12:06:36.040Z,10584
2016-07-12T12:07:36.069Z,10428
2016-07-12T12:08:36.106Z,9996
2016-07-12T12:09:36.141Z,9732
2016-07-12T12:10:51.104Z,9344
2016-07-12T12:11:36.198Z,9044
2016-07-12T12:12:36.234Z,8808
2016-07-12T12:13:36.257Z,9144
2016-07-12T12:14:36.289Z,9164
2016-07-12T12:15:36.325Z,9300
2016-07-12T12:16:36.363Z,9680
2016-07-12T12:17:36.385Z,10028
2016-07-12T12:18:36.413Z,10568
2016-07-12T12:19:36.452Z,11196
2016-07-12T12:20:51.407Z,11464
2016-07-12T12:21:36.516Z,11380
2016-07-12T12:22:51.467Z,11212
2016-07-12T12:23:36.577Z,10820
2016-07-12T12:24:51.528Z,11100
2016-07-12T12:25:36.646Z,10828
2016-07-12T12:26:36.680Z,10476
2016-07-12T12:27:36.708Z,10612
2016-07-12T12:28:36.736Z,10864
2016-07-12T12:29:36.770Z,11396
2016-07-12T12:30:36.797Z,10876
2016-07-12T12:31:51.758Z,11264
2016-07-12T12:32:36.871Z,10364
2016-07-12T12:33:36.895Z,10588
2016-07-12T12:34:36.922Z,10112
2016-07-12T12:35:36.958Z,9356
2016-07-12T12:37:37.020Z,9688
2016-07-12T12:38:37.060Z,9980
2016-07-12T12:39:37.081Z,10224
2016-07-12T12:40:37.103Z,10632
2016-07-12T12:41:37.143Z,11172
2016-07-12T12:42:37.181Z,11196
2016-07-12T12:43:37.197Z,11056
2016-07-12T12:44:37.245Z,10632
2016-07-12T12:45:37.273Z,10520
2016-07-12T12:46:37.294Z,10304
2016-07-12T12:47:37.332Z,9948
2016-07-12T12:48:52.293Z,9632
2016-07-12T12:49:37.398Z,9316
2016-07-12T12:50:52.361Z,8940
2016-07-12T12:51:37.465Z,8684
2016-07-12T12:52:52.421Z,8572
2016-07-12T12:53:37.521Z,8696
2016-07-12T12:54:37.563Z,8488
2016-07-12T12:55:37.590Z,8348
2016-07-12T12:56:37.617Z,7868
2016-07-12T12:57:37.643Z,7596
2016-07-12T12:58:37.681Z,7960
2016-07-12T12:59:37.713Z,8192
2016-07-12T13:00:37.736Z,8232
2016-07-12T13:01:37.783Z,8452
2016-07-12T13:02:37.810Z,8820
2016-07-12T13:03:37.838Z,8856
2016-07-12T13:04:37.875Z,8920
2016-07-12T13:05:37.901Z,8940
2016-07-12T13:06:52.855Z,9012
2016-07-12T13:07:37.983Z,9196
2016-07-12T13:09:38.025Z,10088
2016-07-12T13:10:38.064Z,10312
2016-07-12T13:11:38.081Z,10520
2016-07-12T13:12:38.120Z,10668
2016-07-12T13:13:38.151Z,10924
2016-07-12T13:14:38.186Z,11220
2016-07-12T13:15:38.213Z,11408
2016-07-12T13:16:38.238Z,11376
2016-07-12T13:17:38.277Z,10924
2016-07-12T13:18:38.306Z,10928
2016-07-12T13:19:38.338Z,11208
2016-07-12T13:21:38.402Z,11024
2016-07-12T13:22:38.434Z,10772
2016-07-12T13:23:53.387Z,10872
2016-07-12T13:24:53.421Z,10880
2016-07-12T13:25:53.445Z,10440
2016-07-12T13:26:38.569Z,10324
2016-07-12T13:27:38.583Z,10396
2016-07-12T13:28:38.620Z,10504
2016-07-12T13:29:38.657Z,10272
2016-07-12T13:30:38.681Z,10244
2016-07-12T13:31:38.716Z,9876
2016-07-12T13:32:38.741Z,9824
2016-07-12T13:33:38.779Z,10172
2016-07-12T13:34:38.805Z,10188
2016-07-12T13:35:53.766Z,10028
2016-07-12T13:37:38.898Z,9664
2016-07-12T13:38:38.935Z,9264
2016-07-12T13:39:39.674Z,8892
2016-07-12T13:40:53.925Z,8520
2016-07-12T13:41:39.030Z,8396
2016-07-12T13:42:39.057Z,8348
2016-07-12T13:43:39.811Z,8324
2016-07-12T13:44:39.119Z,8236
2016-07-12T13:45:39.163Z,8264
2016-07-12T13:46:39.188Z,8320
2016-07-12T13:47:39.215Z,8428
2016-07-12T13:48:39.254Z,8628
2016-07-12T13:49:39.282Z,8856
2016-07-12T13:50:39.313Z,9084
2016-07-12T13:51:54.269Z,9280
2016-07-12T13:52:39.375Z,9256
2016-07-12T13:53:39.405Z,9072
2016-07-12T13:54:39.443Z,8984
2016-07-12T13:55:54.543Z,9000
2016-07-12T13:56:39.497Z,9080
2016-07-12T13:57:39.527Z,9216
2016-07-12T13:59:39.594Z,9480
2016-07-12T14:00:39.624Z,9612
2016-07-12T14:01:39.660Z,9556
2016-07-12T14:02:39.681Z,9504
2016-07-12T14:04:39.748Z,9156
2016-07-12T14:05:39.789Z,8824
2016-07-12T14:06:39.829Z,8524
2016-07-12T14:07:39.851Z,8328
2016-07-12T14:08:39.871Z,8160
2016-07-12T14:09:39.911Z,7972
2016-07-12T14:10:54.860Z,8044
2016-07-12T14:11:39.975Z,8108
2016-07-12T14:12:40.002Z,8192
2016-07-12T14:13:40.033Z,8296
2016-07-12T14:14:40.067Z,8428
2016-07-12T14:15:40.089Z,8484
2016-07-12T14:16:40.124Z,8448
2016-07-12T14:17:40.286Z,8352
2016-07-12T14:18:40.185Z,8260
2016-07-12T14:19:40.228Z,8212
2016-07-12T14:20:40.249Z,8300
2016-07-12T14:21:40.281Z,8344
2016-07-12T14:22:40.308Z,8344
2016-07-12T14:23:40.340Z,8516
2016-07-12T14:24:55.306Z,8648
2016-07-12T14:25:40.414Z,8720
2016-07-12T14:26:40.435Z,8684
2016-07-12T14:27:55.390Z,8584
2016-07-12T14:28:55.419Z,8492
2016-07-12T14:29:40.528Z,8432
2016-07-12T14:30:55.480Z,8248
2016-07-12T14:31:40.595Z,8132
2016-07-12T14:32:40.626Z,8000
2016-07-12T14:33:40.668Z,8100